createdAt,value
2022-10-19T00:01:20.449Z,12.20
2022-10-19T00:03:54.076Z,12.20
2022-10-19T00:06:31.252Z,12.30
2022-10-19T00:09:18.339Z,12.40
2022-10-19T00:11:48.597Z,12.50
2022-10-19T00:14:20.323Z,12.50
2022-10-19T00:16:49.223Z,12.50
2022-10-19T00:19:21.176Z,12.60
2022-10-19T00:21:47.957Z,12.60
2022-10-19T00:24:14.647Z,12.70
2022-10-19T00:26:41.135Z,12.80
2022-10-19T00:29:09.461Z,12.80
2022-10-19T00:31:36.042Z,12.90
2022-10-19T00:34:02.599Z,12.80
2022-10-19T00:36:36.914Z,12.80
2022-10-19T00:39:06.924Z,12.80
2022-10-19T00:41:36.309Z,12.80
2022-10-19T00:45:10.600Z,13.00
2022-10-19T00:47:37.602Z,13.00
2022-10-19T00:50:05.080Z,12.80
2022-10-19T00:52:32.570Z,12.90
2022-10-19T00:55:00.340Z,12.90
2022-10-19T00:57:30.368Z,12.80
2022-10-19T00:59:59.612Z,12.70
2022-10-19T01:02:26.168Z,12.80
2022-10-19T01:04:54.028Z,12.70
2022-10-19T01:07:21.090Z,12.90
2022-10-19T01:09:47.674Z,12.80
2022-10-19T01:16:17.124Z,12.70
2022-10-19T01:21:45.212Z,12.70
2022-10-19T01:26:03.559Z,12.60
2022-10-19T01:29:23.569Z,12.40
2022-10-19T01:32:21.208Z,12.40
2022-10-19T01:35:02.342Z,12.30
2022-10-19T01:38:00.202Z,12.20
2022-10-19T01:40:56.914Z,12.30
2022-10-19T01:47:22.825Z,12.20
2022-10-19T01:50:06.908Z,12.00
2022-10-19T01:52:37.218Z,12.00
2022-10-19T01:55:05.192Z,12.00
2022-10-19T01:57:48.805Z,11.90
2022-10-19T02:00:17.417Z,11.80
2022-10-19T02:02:49.584Z,11.80
2022-10-19T02:05:20.489Z,11.70
2022-10-19T02:07:55.326Z,11.70
2022-10-19T02:10:23.248Z,11.70
2022-10-19T02:12:52.913Z,11.70
2022-10-19T02:15:25.927Z,11.70
2022-10-19T02:17:59.034Z,11.70
2022-10-19T02:20:28.055Z,11.50
2022-10-19T02:22:54.760Z,11.60
2022-10-19T02:25:22.429Z,11.60
2022-10-19T02:27:48.955Z,11.60
2022-10-19T02:30:19.303Z,11.60
2022-10-19T02:32:46.280Z,11.60
2022-10-19T02:35:14.230Z,11.60
2022-10-19T02:37:41.444Z,11.60
2022-10-19T02:40:09.686Z,11.60
2022-10-19T02:42:50.986Z,11.60
2022-10-19T02:45:32.095Z,11.40
2022-10-19T02:48:08.120Z,11.40
2022-10-19T02:50:34.874Z,11.30
2022-10-19T02:53:01.349Z,11.20
2022-10-19T02:55:30.110Z,11.20
2022-10-19T02:57:56.682Z,11.40
2022-10-19T03:00:23.142Z,11.60
2022-10-19T03:02:49.652Z,11.70
2022-10-19T03:05:16.161Z,11.60
2022-10-19T03:07:42.654Z,11.40
2022-10-19T03:10:09.551Z,11.20
2022-10-19T03:12:36.002Z,11.10
2022-10-19T03:15:02.839Z,11.00
2022-10-19T03:17:29.390Z,10.80
2022-10-19T03:19:55.853Z,10.70
2022-10-19T03:22:22.412Z,10.70
2022-10-19T03:24:48.948Z,10.90
2022-10-19T03:27:15.471Z,11.10
2022-10-19T03:29:41.982Z,11.10
2022-10-19T03:32:08.520Z,10.80
2022-10-19T03:34:35.000Z,10.70
2022-10-19T03:37:01.478Z,10.60
2022-10-19T03:39:27.925Z,10.50
2022-10-19T03:41:54.405Z,10.50
2022-10-19T03:44:20.877Z,10.50
2022-10-19T03:46:47.405Z,10.50
2022-10-19T03:49:13.930Z,10.60
2022-10-19T03:51:40.464Z,10.60
2022-10-19T03:54:14.064Z,10.60
2022-10-19T03:56:41.586Z,10.80
2022-10-19T03:59:11.597Z,10.90
2022-10-19T04:01:43.022Z,10.80
2022-10-19T04:04:17.150Z,10.80
2022-10-19T04:06:48.368Z,10.80
2022-10-19T04:09:19.247Z,10.70
2022-10-19T04:11:46.560Z,10.70
2022-10-19T04:14:22.800Z,10.60
2022-10-19T04:16:59.022Z,10.60
2022-10-19T04:19:25.557Z,10.40
2022-10-19T04:21:52.066Z,10.30
2022-10-19T04:24:19.012Z,10.20
2022-10-19T04:26:49.564Z,10.20
2022-10-19T04:29:18.782Z,10.20
2022-10-19T04:31:48.944Z,10.20
2022-10-19T04:34:16.261Z,10.20
2022-10-19T04:36:42.831Z,10.20
2022-10-19T04:39:09.424Z,10.00
2022-10-19T04:41:38.042Z,10.10
2022-10-19T04:44:06.106Z,10.10
2022-10-19T04:46:32.768Z,10.10
2022-10-19T04:48:59.766Z,10.30
2022-10-19T04:51:27.187Z,10.30
2022-10-19T04:53:58.572Z,10.40
2022-10-19T04:56:27.570Z,10.60
2022-10-19T04:58:56.851Z,10.60
2022-10-19T05:01:25.603Z,10.60
2022-10-19T05:03:58.564Z,10.40
2022-10-19T05:06:25.751Z,10.30
2022-10-19T05:08:52.513Z,10.30
2022-10-19T05:11:19.834Z,10.20
2022-10-19T05:13:50.403Z,10.20
2022-10-19T05:16:21.043Z,10.20
2022-10-19T05:18:56.042Z,10.10
2022-10-19T05:21:22.653Z,10.10
2022-10-19T05:23:52.984Z,10.20
2022-10-19T05:26:22.873Z,10.20
2022-10-19T05:28:55.871Z,10.20
2022-10-19T05:31:28.163Z,10.20
2022-10-19T05:33:55.723Z,10.20
2022-10-19T05:36:26.968Z,10.50
2022-10-19T05:38:56.665Z,10.60
2022-10-19T05:41:25.301Z,10.50
2022-10-19T05:44:00.755Z,10.40
2022-10-19T05:46:29.523Z,10.40
2022-10-19T05:48:58.087Z,10.60
2022-10-19T05:51:27.074Z,10.80
2022-10-19T05:53:55.579Z,10.80
2022-10-19T05:56:28.696Z,11.00
2022-10-19T05:58:57.857Z,11.10
2022-10-19T06:01:25.334Z,11.20
2022-10-19T06:03:54.631Z,11.30
2022-10-19T06:06:21.945Z,11.40
2022-10-19T06:08:49.538Z,11.50
2022-10-19T06:11:19.810Z,11.60
2022-10-19T06:13:49.789Z,11.40
2022-10-19T06:16:18.625Z,11.50
2022-10-19T06:18:45.990Z,11.50
2022-10-19T06:21:19.338Z,11.60
2022-10-19T06:23:51.186Z,11.60
2022-10-19T06:26:18.103Z,11.60
2022-10-19T06:28:45.592Z,11.60
2022-10-19T06:31:13.984Z,11.50
2022-10-19T06:33:43.878Z,11.40
2022-10-19T06:36:18.451Z,11.40
2022-10-19T06:38:45.219Z,11.40
2022-10-19T06:41:12.015Z,11.40
2022-10-19T06:43:38.589Z,11.40
2022-10-19T06:46:11.044Z,11.50
2022-10-19T06:48:38.185Z,11.80
2022-10-19T06:51:06.929Z,11.90
2022-10-19T06:53:35.086Z,12.10
2022-10-19T06:56:05.193Z,12.30
2022-10-19T06:58:36.304Z,12.30
2022-10-19T07:01:06.727Z,12.30
2022-10-19T07:03:33.573Z,12.40
2022-10-19T07:06:03.132Z,12.60
2022-10-19T07:08:31.960Z,12.60
2022-10-19T07:11:02.672Z,12.70
2022-10-19T07:13:30.348Z,12.70
2022-10-19T07:16:13.497Z,12.90
2022-10-19T07:18:42.795Z,13.00
2022-10-19T07:21:13.821Z,13.10
2022-10-19T07:23:43.104Z,13.30
2022-10-19T07:26:20.403Z,13.50
2022-10-19T07:28:48.477Z,13.50
2022-10-19T07:31:19.486Z,13.50
2022-10-19T07:33:50.665Z,13.60
2022-10-19T07:36:17.225Z,13.80
2022-10-19T07:38:43.694Z,14.00
2022-10-19T07:41:14.718Z,14.20
2022-10-19T07:43:43.919Z,14.30
2022-10-19T07:46:17.058Z,14.40
2022-10-19T07:48:44.703Z,14.50
2022-10-19T07:51:14.037Z,14.50
2022-10-19T07:53:41.246Z,14.70
2022-10-19T07:56:18.099Z,14.90
2022-10-19T07:58:44.710Z,15.10
2022-10-19T08:01:27.844Z,15.10
2022-10-19T08:04:48.681Z,15.20
2022-10-19T08:07:25.900Z,15.30
2022-10-19T08:09:53.894Z,15.70
2022-10-19T08:12:21.042Z,15.90
2022-10-19T08:14:47.612Z,16.40
2022-10-19T08:17:16.871Z,16.80
2022-10-19T08:19:45.018Z,16.90
2022-10-19T08:22:12.051Z,16.90
2022-10-19T08:24:38.671Z,17.00
2022-10-19T08:27:05.386Z,17.10
2022-10-19T08:29:32.133Z,17.30
2022-10-19T08:31:59.052Z,17.40
2022-10-19T08:34:26.071Z,17.50
2022-10-19T08:36:52.813Z,17.60
2022-10-19T08:39:19.437Z,17.70
2022-10-19T08:42:13.710Z,17.70
2022-10-19T08:46:25.159Z,17.70
2022-10-19T08:48:52.093Z,17.80
2022-10-19T08:51:18.843Z,18.10
2022-10-19T08:53:58.832Z,18.00
2022-10-19T08:56:50.991Z,17.70
2022-10-19T08:59:44.620Z,17.70
2022-10-19T09:02:38.739Z,17.70
2022-10-19T09:05:42.911Z,17.80
2022-10-19T09:08:15.388Z,18.00
2022-10-19T09:10:49.846Z,18.50
2022-10-19T09:14:33.449Z,18.90
2022-10-19T09:17:16.373Z,19.20
2022-10-19T09:19:42.977Z,19.50
2022-10-19T09:22:31.824Z,19.40
2022-10-19T09:25:18.760Z,19.40
2022-10-19T09:27:52.414Z,19.60
2022-10-19T09:30:22.955Z,19.70
2022-10-19T09:32:59.605Z,19.80
2022-10-19T09:35:47.922Z,19.80
2022-10-19T09:38:19.153Z,19.70
2022-10-19T09:40:46.626Z,19.40
2022-10-19T09:43:20.270Z,18.90
2022-10-19T09:46:19.483Z,18.60
2022-10-19T09:48:52.598Z,18.60
2022-10-19T09:51:20.804Z,18.70
2022-10-19T09:53:55.401Z,19.00
2022-10-19T09:56:26.211Z,19.10
2022-10-19T09:58:58.128Z,19.20
2022-10-19T10:01:43.199Z,19.30
2022-10-19T10:04:17.709Z,19.50
2022-10-19T10:06:47.824Z,19.30
2022-10-19T10:09:25.244Z,19.30
2022-10-19T10:14:31.815Z,19.40
2022-10-19T10:17:27.449Z,19.60
2022-10-19T10:20:29.674Z,19.90
2022-10-19T10:23:03.489Z,20.00
2022-10-19T10:25:35.530Z,20.00
2022-10-19T10:28:20.867Z,19.80
2022-10-19T10:30:53.967Z,19.60
2022-10-19T10:33:40.730Z,19.40
2022-10-19T10:36:11.905Z,19.20
2022-10-19T10:38:50.333Z,19.00
2022-10-19T10:41:23.394Z,19.00
2022-10-19T10:44:06.161Z,19.20
2022-10-19T10:46:56.467Z,19.20
2022-10-19T10:49:36.238Z,19.40
2022-10-19T10:52:20.993Z,19.40
2022-10-19T10:56:42.617Z,19.60
2022-10-19T10:59:31.020Z,19.50
2022-10-19T11:02:12.462Z,19.70
2022-10-19T11:04:51.437Z,19.60
2022-10-19T11:07:24.083Z,19.70
2022-10-19T11:10:10.818Z,19.70
2022-10-19T11:12:44.665Z,19.80
2022-10-19T11:15:27.362Z,19.90
2022-10-19T11:18:19.713Z,20.00
2022-10-19T11:21:19.395Z,20.00
2022-10-19T11:25:55.995Z,20.00
2022-10-19T11:29:04.634Z,20.20
2022-10-19T11:31:47.790Z,20.10
2022-10-19T11:35:56.097Z,20.00
2022-10-19T11:39:06.788Z,20.20
2022-10-19T11:41:49.342Z,20.20
2022-10-19T11:44:51.113Z,20.20
2022-10-19T11:49:23.305Z,20.20
2022-10-19T11:52:47.114Z,20.50
2022-10-19T11:55:50.566Z,20.20
2022-10-19T11:58:57.666Z,20.20
2022-10-19T12:04:32.915Z,20.20
2022-10-19T12:09:31.579Z,20.30
2022-10-19T12:12:32.564Z,20.20
2022-10-19T12:15:35.461Z,20.10
2022-10-19T12:18:51.043Z,20.30
2022-10-19T12:21:28.653Z,20.30
2022-10-19T12:24:04.285Z,20.20
2022-10-19T12:26:36.059Z,20.20
2022-10-19T12:29:20.857Z,20.20
2022-10-19T12:31:49.471Z,20.20
2022-10-19T12:35:20.804Z,20.20
2022-10-19T12:38:04.798Z,20.20
2022-10-19T12:40:55.627Z,20.10
2022-10-19T12:44:05.479Z,20.10
2022-10-19T12:47:00.865Z,20.10
2022-10-19T12:50:09.807Z,20.00
2022-10-19T12:52:48.855Z,20.10
2022-10-19T12:55:33.822Z,20.00
2022-10-19T12:58:20.130Z,20.10
2022-10-19T13:01:03.930Z,19.80
2022-10-19T13:03:36.168Z,19.70
2022-10-19T13:06:15.613Z,19.90
2022-10-19T13:08:56.759Z,19.80
2022-10-19T13:11:23.321Z,19.80
2022-10-19T13:14:52.142Z,19.90
2022-10-19T13:19:22.572Z,19.80
2022-10-19T13:22:24.941Z,19.90
2022-10-19T13:25:27.983Z,19.80
2022-10-19T13:28:37.268Z,19.80
2022-10-19T13:31:21.877Z,19.80
2022-10-19T13:33:50.095Z,19.80
2022-10-19T13:36:18.004Z,19.70
2022-10-19T13:39:08.118Z,19.80
2022-10-19T13:41:48.537Z,19.70
2022-10-19T13:44:26.192Z,19.70
2022-10-19T13:48:24.061Z,19.80
2022-10-19T13:53:36.344Z,19.70
2022-10-19T13:56:46.780Z,19.60
2022-10-19T14:04:25.525Z,19.40
2022-10-19T14:07:07.842Z,19.50
2022-10-19T14:10:13.492Z,19.60
2022-10-19T14:12:43.918Z,19.50
2022-10-19T14:15:26.903Z,19.60
2022-10-19T14:17:54.344Z,19.60
2022-10-19T14:20:37.854Z,19.40
2022-10-19T14:23:24.266Z,19.30
2022-10-19T14:26:03.085Z,19.30
2022-10-19T14:28:31.116Z,19.40
2022-10-19T14:31:35.665Z,19.30
2022-10-19T14:34:08.458Z,19.20
2022-10-19T14:36:42.691Z,19.20
2022-10-19T14:39:39.592Z,19.30
2022-10-19T14:42:09.914Z,19.20
2022-10-19T14:44:43.637Z,19.00
2022-10-19T14:47:29.631Z,19.00
2022-10-19T14:49:56.535Z,19.10
2022-10-19T14:52:36.808Z,18.90
2022-10-19T14:55:18.558Z,18.80
2022-10-19T14:57:51.631Z,19.00
2022-10-19T15:00:22.055Z,18.90
2022-10-19T15:03:05.745Z,18.70
2022-10-19T15:05:45.491Z,18.70
2022-10-19T15:08:29.209Z,18.60
2022-10-19T15:10:56.124Z,18.60
2022-10-19T15:13:32.986Z,18.50
2022-10-19T15:15:59.729Z,18.40
2022-10-19T15:18:48.782Z,18.30
2022-10-19T15:21:20.111Z,18.20
2022-10-19T15:23:49.733Z,18.10
2022-10-19T15:26:30.523Z,18.00
2022-10-19T15:29:20.230Z,17.90
2022-10-19T15:31:46.778Z,17.90
2022-10-19T15:34:26.523Z,17.90
2022-10-19T15:37:01.336Z,17.80
2022-10-19T15:39:41.030Z,17.70
2022-10-19T15:42:56.083Z,17.70
2022-10-19T15:45:38.474Z,17.70
2022-10-19T15:51:03.392Z,17.60
2022-10-19T15:53:29.875Z,17.60
2022-10-19T15:55:58.142Z,17.60
2022-10-19T15:58:24.628Z,17.60
2022-10-19T16:00:51.085Z,17.50
2022-10-19T16:03:17.626Z,17.50
2022-10-19T16:05:44.300Z,17.40
2022-10-19T16:08:12.485Z,17.40
2022-10-19T16:10:39.153Z,17.30
2022-10-19T16:13:05.657Z,17.30
2022-10-19T16:15:32.714Z,17.20
2022-10-19T16:18:00.253Z,17.20
2022-10-19T16:20:29.364Z,17.10
2022-10-19T16:22:56.620Z,17.10
2022-10-19T16:25:23.154Z,17.10
2022-10-19T16:27:49.742Z,17.00
2022-10-19T16:30:16.325Z,17.00
2022-10-19T16:35:09.484Z,16.90
2022-10-19T16:37:36.759Z,16.90
2022-10-19T16:40:04.527Z,16.90
2022-10-19T16:42:31.554Z,16.90
2022-10-19T16:44:58.111Z,17.00
2022-10-19T16:47:24.584Z,17.00
2022-10-19T16:50:11.011Z,17.00
2022-10-19T16:52:37.966Z,16.90
2022-10-19T16:55:05.560Z,16.90
2022-10-19T16:57:32.085Z,17.00
2022-10-19T16:59:58.578Z,16.80
2022-10-19T17:02:28.179Z,16.70
2022-10-19T17:04:54.657Z,16.70
2022-10-19T17:07:21.342Z,16.70
2022-10-19T17:09:49.803Z,16.70
2022-10-19T17:12:18.869Z,16.60
2022-10-19T17:14:45.332Z,16.60
2022-10-19T17:17:12.136Z,16.60
2022-10-19T17:19:38.767Z,16.50
2022-10-19T17:22:05.443Z,16.40
2022-10-19T17:24:31.943Z,16.30
2022-10-19T17:27:04.364Z,16.30
2022-10-19T17:29:31.060Z,16.20
2022-10-19T17:31:58.114Z,16.20
2022-10-19T17:34:24.822Z,16.10
2022-10-19T17:36:51.354Z,16.00
2022-10-19T17:39:25.625Z,16.00
2022-10-19T17:41:56.685Z,15.90
2022-10-19T17:44:23.170Z,15.70
2022-10-19T17:46:49.823Z,15.70
2022-10-19T17:49:16.632Z,15.60
2022-10-19T17:51:43.130Z,15.50
2022-10-19T17:54:13.263Z,15.40
2022-10-19T17:56:45.535Z,15.30
2022-10-19T17:59:12.565Z,15.20
2022-10-19T18:01:39.091Z,15.20
2022-10-19T18:04:06.042Z,15.10
2022-10-19T18:06:36.380Z,15.10
2022-10-19T18:09:06.380Z,15.10
2022-10-19T18:11:41.582Z,15.10
2022-10-19T18:14:11.251Z,15.10
2022-10-19T18:16:42.911Z,15.20
2022-10-19T18:19:09.692Z,15.30
2022-10-19T18:21:40.393Z,15.30
2022-10-19T18:24:15.127Z,15.20
2022-10-19T18:26:42.614Z,15.20
2022-10-19T18:29:20.216Z,15.20
2022-10-19T18:31:50.620Z,15.20
2022-10-19T18:34:20.644Z,15.20
2022-10-19T18:36:47.713Z,15.20
2022-10-19T18:39:14.497Z,15.20
2022-10-19T18:41:41.407Z,15.20
2022-10-19T18:44:11.238Z,15.20
2022-10-19T18:46:37.703Z,15.10
2022-10-19T18:49:07.715Z,15.10
2022-10-19T18:51:34.808Z,15.10
2022-10-19T18:54:01.296Z,15.10
2022-10-19T18:56:28.678Z,15.20
2022-10-19T18:58:56.460Z,15.10
2022-10-19T19:01:26.585Z,15.10
2022-10-19T19:03:56.683Z,15.20
2022-10-19T19:06:28.184Z,15.20
2022-10-19T19:09:00.189Z,15.20
2022-10-19T19:11:35.996Z,15.20
2022-10-19T19:14:12.768Z,15.20
2022-10-19T19:16:40.623Z,15.30
2022-10-19T19:19:09.531Z,15.20
2022-10-19T19:21:36.271Z,15.20
2022-10-19T19:24:06.086Z,15.20
2022-10-19T19:26:38.338Z,15.20
2022-10-19T19:29:04.813Z,15.20
2022-10-19T19:31:31.472Z,15.20
2022-10-19T19:34:00.457Z,15.20
2022-10-19T19:36:27.665Z,15.20
2022-10-19T19:38:56.251Z,15.20
2022-10-19T19:41:22.751Z,15.20
2022-10-19T19:43:49.224Z,15.20
2022-10-19T19:46:18.512Z,15.10
2022-10-19T19:48:47.816Z,15.10
2022-10-19T19:51:20.109Z,15.10
2022-10-19T19:53:47.698Z,15.10
2022-10-19T19:56:16.530Z,15.00
2022-10-19T19:58:44.624Z,14.90
2022-10-19T20:01:18.138Z,14.80
2022-10-19T20:03:45.765Z,14.70
2022-10-19T20:06:14.269Z,14.60
2022-10-19T20:08:40.856Z,14.50
2022-10-19T20:11:11.221Z,14.60
2022-10-19T20:13:38.763Z,14.50
2022-10-19T20:16:17.749Z,14.60
2022-10-19T20:18:50.272Z,14.50
2022-10-19T20:21:18.606Z,14.40
2022-10-19T20:23:46.465Z,14.30
2022-10-19T20:26:22.260Z,14.30
2022-10-19T20:28:49.527Z,14.20
2022-10-19T20:31:16.701Z,14.20
2022-10-19T20:33:44.202Z,14.30
2022-10-19T20:36:14.973Z,14.30
2022-10-19T20:38:48.249Z,14.30
2022-10-19T20:41:15.077Z,14.30
2022-10-19T20:43:41.546Z,14.30
2022-10-19T20:46:21.449Z,14.30
2022-10-19T20:48:49.672Z,14.30
2022-10-19T20:51:30.857Z,14.30
2022-10-19T20:54:00.640Z,14.30
2022-10-19T20:56:33.460Z,14.30
2022-10-19T20:59:12.277Z,14.40
2022-10-19T21:01:40.264Z,14.30
2022-10-19T21:04:09.898Z,14.30
2022-10-19T21:06:45.644Z,14.30
2022-10-19T21:09:16.219Z,14.30
2022-10-19T21:11:45.130Z,14.40
2022-10-19T21:14:25.290Z,14.40
2022-10-19T21:16:59.276Z,14.40
2022-10-19T21:19:28.331Z,14.50
2022-10-19T21:22:01.254Z,14.60
2022-10-19T21:24:34.572Z,14.50
2022-10-19T21:27:04.870Z,14.50
2022-10-19T21:29:31.816Z,14.50
2022-10-19T21:31:58.405Z,14.50
2022-10-19T21:34:29.017Z,14.70
2022-10-19T21:36:55.933Z,14.70
2022-10-19T21:39:22.484Z,14.90
2022-10-19T21:41:49.798Z,14.90
2022-10-19T21:44:17.464Z,15.00
2022-10-19T21:46:46.527Z,15.00
2022-10-19T21:49:13.236Z,15.00
2022-10-19T21:51:53.652Z,15.00
2022-10-19T21:54:26.861Z,14.90
2022-10-19T21:56:55.037Z,14.90
2022-10-19T21:59:21.520Z,14.90
2022-10-19T22:01:48.115Z,14.80
2022-10-19T22:04:17.202Z,14.80
2022-10-19T22:06:44.229Z,14.80
2022-10-19T22:09:15.655Z,14.70
2022-10-19T22:11:42.571Z,14.70
2022-10-19T22:14:11.813Z,14.60
2022-10-19T22:16:40.739Z,14.40
2022-10-19T22:19:09.171Z,14.40
2022-10-19T22:24:11.841Z,14.40
2022-10-19T22:26:43.147Z,14.30
2022-10-19T22:29:09.649Z,14.20
2022-10-19T22:31:37.733Z,14.10
2022-10-19T22:34:08.841Z,14.10
2022-10-19T22:36:35.762Z,14.00
2022-10-19T22:39:02.708Z,14.00
2022-10-19T22:41:29.165Z,13.90
2022-10-19T22:43:55.658Z,13.90
2022-10-19T22:46:22.119Z,13.90
2022-10-19T22:48:48.594Z,13.80
2022-10-19T22:51:15.054Z,13.80
2022-10-19T22:53:41.598Z,13.80
2022-10-19T22:56:11.691Z,13.70
2022-10-19T22:58:38.508Z,13.70
2022-10-19T23:01:15.701Z,13.70
2022-10-19T23:03:42.797Z,13.80
2022-10-19T23:06:12.939Z,13.70
2022-10-19T23:08:39.729Z,13.70
2022-10-19T23:11:06.511Z,13.60
2022-10-19T23:13:33.050Z,13.60
2022-10-19T23:15:59.533Z,13.60
2022-10-19T23:18:26.042Z,13.60
2022-10-19T23:21:01.471Z,13.60
2022-10-19T23:23:29.952Z,13.70
2022-10-19T23:26:11.769Z,13.60
2022-10-19T23:28:41.113Z,13.60
2022-10-19T23:31:23.595Z,13.50
2022-10-19T23:33:51.165Z,13.60
2022-10-19T23:36:21.595Z,13.50
2022-10-19T23:38:51.084Z,13.50
2022-10-19T23:41:19.077Z,13.50
2022-10-19T23:43:46.234Z,13.50
2022-10-19T23:46:13.290Z,13.50
2022-10-19T23:48:40.938Z,13.60
2022-10-19T23:51:13.030Z,13.60
2022-10-19T23:53:42.488Z,13.40
2022-10-19T23:56:25.651Z,13.30
2022-10-19T23:58:53.178Z,13.40
